Wolf Creek Pass, CO

3:13 AM MDT on September 02, 2014 (GMT -0600)
Wolf Creek Pass | Change Station
CLOSE
Current Station
Airport
Location: Wolf Creek Pass,
Elevation: 11759 ft
Nearby Weather Stations

Elev 11759 ft 37.45 °N, 106.80 °W | Updated 19 minutes ago

Clear
Clear
46 °F
Feels Like 42 °F
N
10
Wind Variable Wind from SW

Today
High -- | Low -- °F
--% Chance of Precip.
Yesterday
High -- | Low -- °F
Precip. -- in
6:38 AM 7:34 PM
Waxing Crescent, 49% visible
Pressure 30.56 in
Visibility 10.0 miles
Clouds Clear
Windchill 42 °F
Dew Point 27 °F
Humidity 46%
Rainfall 0.00 in
Snow Depth Not available.
UV 0 out of 12
Pollen 10.10 out of 12
Air Quality Not available.
Flu Activity Not available.
METAR KCPW 020854Z AUTO 22009KT 10SM CLR 08/M03 A3056 RMK AO2

More Conditions Fewer Conditions

Pressure 30.56 in
Visibility 10.0 miles
Clouds Clear
Windchill 42 °F
Dew Point 27 °F
Humidity 46%
Rainfall 0.00 in
Snow Depth Not available.
UV 0 out of 12
Pollen 10.10 out of 12
Air Quality Not available.
Flu Activity Not available.
METAR KCPW 020854Z AUTO 22009KT 10SM CLR 08/M03 A3056 RMK AO2

More Conditions Fewer Conditions

10-Day Weather Forecast

Almanac

Astronomy

Sep. 02, 2014 Rise Set
Actual Time 6:38 AM MDT 7:34 PM MDT
Civil Twilight 6:11 AM MDT 8:01 PM MDT
Nautical Twilight 5:40 AM MDT 8:32 PM MDT
Astronomical Twilight 5:07 AM MDT 9:05 PM MDT
Moon 2:16 PM MDT No Moon Set
Length of Visible Light 13h 49m
Length of Day
12h 56m
Tomorrow will be 2m 19s shorter.
Waxing Crescent, 49% of the Moon is Illuminated
Today
Waxing Crescent
Sep 2
First Quarter
Sep 8
Full
Sep 15
Last Quarter
Sep 24
New

Today's Extremes

State Highs State Lows

Community

WunderPhotos

Upload Photos

1,749,587 photos uploaded!

WunderBlogs® & News

Nearby

Snow Depth

Station Depth Elevation
Wolf Creek Summit 0 in 11000 ft
Upper San Juan 2 in 10130 ft
Lily Pond 0 in 11000 ft
Upper Rio Grande 0 in 9400 ft
Vallecito 1 in 10880 ft

Earthquake Activity

City Distance Mag. Time & Date
Trinidad, Colorado 105 miles 2.7 4:20 AM MDT
2014-08-31
Minimum magnitude displayed is 2.5.

Coastal Water Temperatures

Place Temperature
No Stations Reporting

Nearby Weather Stations